sensor_id;sensor_type;location;lat;lon;timestamp;pressure;altitude;pressure_sealevel;temperature;humidity
57086;BME280;42964;42.910;23.792;2023-01-19T00:02:56;96450.69;;;14.11;42.76
57086;BME280;42964;42.910;23.792;2023-01-19T00:07:55;96444.22;;;14.22;42.41
57086;BME280;42964;42.910;23.792;2023-01-19T00:12:54;96446.63;;;14.28;41.68
57086;BME280;42964;42.910;23.792;2023-01-19T00:17:53;96439.28;;;14.37;41.30
57086;BME280;42964;42.910;23.792;2023-01-19T00:22:52;96437.94;;;14.51;40.74
57086;BME280;42964;42.910;23.792;2023-01-19T00:27:50;96433.59;;;14.50;41.04
57086;BME280;42964;42.910;23.792;2023-01-19T00:32:49;96440.66;;;14.48;40.94
57086;BME280;42964;42.910;23.792;2023-01-19T00:37:48;96468.13;;;14.58;40.86
57086;BME280;42964;42.910;23.792;2023-01-19T00:42:47;96459.28;;;14.62;41.29
57086;BME280;42964;42.910;23.792;2023-01-19T00:47:47;96439.63;;;14.52;41.19
57086;BME280;42964;42.910;23.792;2023-01-19T00:52:46;96449.22;;;14.51;41.05
57086;BME280;42964;42.910;23.792;2023-01-19T00:57:44;96440.41;;;14.54;41.10
57086;BME280;42964;42.910;23.792;2023-01-19T01:02:43;96430.22;;;14.48;40.95
57086;BME280;42964;42.910;23.792;2023-01-19T01:07:42;96432.13;;;14.43;40.98
57086;BME280;42964;42.910;23.792;2023-01-19T01:12:47;96430.63;;;14.37;40.62
57086;BME280;42964;42.910;23.792;2023-01-19T01:17:46;96435.50;;;14.46;40.27
57086;BME280;42964;42.910;23.792;2023-01-19T01:22:48;96430.22;;;14.48;39.97
57086;BME280;42964;42.910;23.792;2023-01-19T01:27:47;96442.41;;;14.47;39.43
57086;BME280;42964;42.910;23.792;2023-01-19T01:32:46;96436.66;;;14.61;39.40
57086;BME280;42964;42.910;23.792;2023-01-19T01:37:45;96404.66;;;14.34;39.44
57086;BME280;42964;42.910;23.792;2023-01-19T01:42:44;96422.91;;;14.57;37.97
57086;BME280;42964;42.910;23.792;2023-01-19T01:47:45;96426.66;;;14.74;37.75
57086;BME280;42964;42.910;23.792;2023-01-19T01:53:06;96429.19;;;14.75;37.52
57086;BME280;42964;42.910;23.792;2023-01-19T01:58:08;96379.75;;;14.47;37.12
57086;BME280;42964;42.910;23.792;2023-01-19T02:03:08;96429.44;;;14.91;36.65
57086;BME280;42964;42.910;23.792;2023-01-19T02:08:08;96427.44;;;14.98;36.67
57086;BME280;42964;42.910;23.792;2023-01-19T02:13:29;96418.56;;;15.02;35.67
57086;BME280;42964;42.910;23.792;2023-01-19T02:18:30;96402.41;;;15.14;35.25
57086;BME280;42964;42.910;23.792;2023-01-19T02:28:40;96404.38;;;15.50;33.27
57086;BME280;42964;42.910;23.792;2023-01-19T02:33:41;96398.66;;;15.83;33.60
57086;BME280;42964;42.910;23.792;2023-01-19T02:38:39;96366.94;;;15.91;33.21
57086;BME280;42964;42.910;23.792;2023-01-19T02:43:40;96379.63;;;16.00;32.90
57086;BME280;42964;42.910;23.792;2023-01-19T02:48:40;96380.09;;;15.89;33.07
57086;BME280;42964;42.910;23.792;2023-01-19T02:53:48;96399.53;;;15.83;33.04
57086;BME280;42964;42.910;23.792;2023-01-19T02:58:55;96397.03;;;15.80;32.95
57086;BME280;42964;42.910;23.792;2023-01-19T03:14:58;96386.03;;;15.72;32.52
57086;BME280;42964;42.910;23.792;2023-01-19T03:20:01;96356.53;;;15.48;32.35
57086;BME280;42964;42.910;23.792;2023-01-19T03:25:01;96401.22;;;15.84;33.15
57086;BME280;42964;42.910;23.792;2023-01-19T03:30:10;96337.88;;;15.37;32.58
57086;BME280;42964;42.910;23.792;2023-01-19T03:35:12;96405.38;;;15.68;33.38
57086;BME280;42964;42.910;23.792;2023-01-19T03:40:12;96409.03;;;15.64;32.90
57086;BME280;42964;42.910;23.792;2023-01-19T03:45:12;96389.25;;;15.58;33.22
57086;BME280;42964;42.910;23.792;2023-01-19T03:50:23;96419.28;;;15.68;32.97
57086;BME280;42964;42.910;23.792;2023-01-19T03:55:24;96421.47;;;15.59;33.93
57086;BME280;42964;42.910;23.792;2023-01-19T04:00:23;96417.00;;;15.40;34.12
57086;BME280;42964;42.910;23.792;2023-01-19T04:05:23;96422.59;;;15.31;34.35
57086;BME280;42964;42.910;23.792;2023-01-19T04:10:22;96429.19;;;15.19;35.47
57086;BME280;42964;42.910;23.792;2023-01-19T04:15:21;96422.81;;;15.04;35.18
57086;BME280;42964;42.910;23.792;2023-01-19T04:20:20;96416.16;;;14.97;35.61
57086;BME280;42964;42.910;23.792;2023-01-19T04:25:19;96422.94;;;14.79;35.95
57086;BME280;42964;42.910;23.792;2023-01-19T04:30:19;96434.78;;;14.88;36.32
57086;BME280;42964;42.910;23.792;2023-01-19T04:35:18;96444.75;;;14.78;36.78
57086;BME280;42964;42.910;23.792;2023-01-19T04:40:17;96439.53;;;14.78;36.84
57086;BME280;42964;42.910;23.792;2023-01-19T04:45:16;96453.59;;;14.74;37.26
57086;BME280;42964;42.910;23.792;2023-01-19T04:50:15;96439.81;;;14.71;37.66
57086;BME280;42964;42.910;23.792;2023-01-19T04:55:15;96446.94;;;14.66;37.70
57086;BME280;42964;42.910;23.792;2023-01-19T05:00:14;96444.56;;;14.59;38.03
57086;BME280;42964;42.910;23.792;2023-01-19T05:05:13;96460.41;;;14.55;38.20
57086;BME280;42964;42.910;23.792;2023-01-19T05:10:13;96465.31;;;14.40;38.58
57086;BME280;42964;42.910;23.792;2023-01-19T05:15:11;96464.59;;;14.35;39.00
57086;BME280;42964;42.910;23.792;2023-01-19T05:20:11;96470.84;;;14.31;38.89
57086;BME280;42964;42.910;23.792;2023-01-19T05:25:10;96468.34;;;14.28;39.08
57086;BME280;42964;42.910;23.792;2023-01-19T05:30:09;96473.22;;;14.37;38.49
57086;BME280;42964;42.910;23.792;2023-01-19T05:35:09;96491.63;;;14.34;39.00
57086;BME280;42964;42.910;23.792;2023-01-19T05:40:08;96507.44;;;14.30;38.64
57086;BME280;42964;42.910;23.792;2023-01-19T05:45:07;96508.75;;;14.41;38.80
57086;BME280;42964;42.910;23.792;2023-01-19T05:50:06;96475.81;;;14.14;38.57
57086;BME280;42964;42.910;23.792;2023-01-19T05:55:06;96480.34;;;14.34;38.69
57086;BME280;42964;42.910;23.792;2023-01-19T06:00:05;96480.38;;;14.32;38.94
57086;BME280;42964;42.910;23.792;2023-01-19T06:05:05;96473.31;;;14.36;38.56
57086;BME280;42964;42.910;23.792;2023-01-19T06:10:04;96460.41;;;14.31;38.50
57086;BME280;42964;42.910;23.792;2023-01-19T06:15:03;96471.47;;;14.38;38.15
57086;BME280;42964;42.910;23.792;2023-01-19T06:20:03;96484.81;;;14.54;37.54
57086;BME280;42964;42.910;23.792;2023-01-19T06:25:03;96504.34;;;14.67;37.69
57086;BME280;42964;42.910;23.792;2023-01-19T06:30:02;96493.78;;;14.70;37.19
57086;BME280;42964;42.910;23.792;2023-01-19T06:35:02;96496.31;;;14.73;37.10
57086;BME280;42964;42.910;23.792;2023-01-19T06:40:01;96493.72;;;14.95;36.66
57086;BME280;42964;42.910;23.792;2023-01-19T06:45:01;96506.06;;;15.14;36.15
57086;BME280;42964;42.910;23.792;2023-01-19T06:49:59;96505.16;;;15.15;36.41
57086;BME280;42964;42.910;23.792;2023-01-19T06:54:59;96485.59;;;15.25;36.39
57086;BME280;42964;42.910;23.792;2023-01-19T06:59:58;96496.22;;;15.42;36.29
57086;BME280;42964;42.910;23.792;2023-01-19T07:04:59;96498.88;;;15.41;36.26
57086;BME280;42964;42.910;23.792;2023-01-19T07:09:58;96494.53;;;15.41;36.06
57086;BME280;42964;42.910;23.792;2023-01-19T07:14:57;96506.09;;;15.56;36.26
57086;BME280;42964;42.910;23.792;2023-01-19T07:19:56;96496.78;;;15.71;36.04
57086;BME280;42964;42.910;23.792;2023-01-19T07:24:54;96503.16;;;15.64;36.26
57086;BME280;42964;42.910;23.792;2023-01-19T07:29:53;96502.28;;;15.65;36.26
57086;BME280;42964;42.910;23.792;2023-01-19T07:34:52;96516.91;;;15.91;35.66
57086;BME280;42964;42.910;23.792;2023-01-19T07:39:51;96511.28;;;16.00;35.58
57086;BME280;42964;42.910;23.792;2023-01-19T07:44:50;96506.56;;;16.08;35.61
57086;BME280;42964;42.910;23.792;2023-01-19T07:49:49;96510.56;;;16.17;35.64
57086;BME280;42964;42.910;23.792;2023-01-19T07:54:48;96518.84;;;16.27;34.99
57086;BME280;42964;42.910;23.792;2023-01-19T07:59:48;96512.22;;;16.39;34.38
57086;BME280;42964;42.910;23.792;2023-01-19T08:04:47;96517.00;;;16.49;33.73
57086;BME280;42964;42.910;23.792;2023-01-19T08:09:46;96509.31;;;16.65;33.53
57086;BME280;42964;42.910;23.792;2023-01-19T08:14:45;96537.47;;;16.79;33.35
57086;BME280;42964;42.910;23.792;2023-01-19T08:19:44;96542.22;;;16.91;33.25
57086;BME280;42964;42.910;23.792;2023-01-19T08:24:43;96550.09;;;17.10;32.75
57086;BME280;42964;42.910;23.792;2023-01-19T08:29:42;96558.22;;;17.23;32.09
57086;BME280;42964;42.910;23.792;2023-01-19T08:34:41;96575.78;;;17.21;32.15
57086;BME280;42964;42.910;23.792;2023-01-19T08:39:40;96569.56;;;17.43;32.29
57086;BME280;42964;42.910;23.792;2023-01-19T08:44:39;96572.81;;;17.48;31.82
57086;BME280;42964;42.910;23.792;2023-01-19T08:49:38;96562.44;;;17.45;31.61
57086;BME280;42964;42.910;23.792;2023-01-19T08:54:38;96584.53;;;17.77;31.49
57086;BME280;42964;42.910;23.792;2023-01-19T08:59:37;96559.16;;;17.77;31.70
57086;BME280;42964;42.910;23.792;2023-01-19T09:04:36;96527.00;;;17.72;30.98
57086;BME280;42964;42.910;23.792;2023-01-19T09:09:35;96573.06;;;18.14;30.88
57086;BME280;42964;42.910;23.792;2023-01-19T09:14:35;96575.00;;;18.28;30.77
57086;BME280;42964;42.910;23.792;2023-01-19T09:19:34;96581.56;;;18.37;30.47
57086;BME280;42964;42.910;23.792;2023-01-19T09:24:33;96580.88;;;18.51;30.31
57086;BME280;42964;42.910;23.792;2023-01-19T09:29:32;96561.00;;;18.45;29.70
57086;BME280;42964;42.910;23.792;2023-01-19T09:34:31;96563.88;;;18.58;29.57
57086;BME280;42964;42.910;23.792;2023-01-19T09:39:30;96567.78;;;18.84;29.78
57086;BME280;42964;42.910;23.792;2023-01-19T09:44:32;96560.66;;;18.86;29.36
57086;BME280;42964;42.910;23.792;2023-01-19T09:49:39;96503.66;;;18.71;28.20
57086;BME280;42964;42.910;23.792;2023-01-19T09:54:51;96527.25;;;19.20;28.65
57086;BME280;42964;42.910;23.792;2023-01-19T09:59:51;96530.16;;;19.31;28.06
57086;BME280;42964;42.910;23.792;2023-01-19T10:10:33;96478.56;;;19.29;28.04
57086;BME280;42964;42.910;23.792;2023-01-19T10:20:55;96528.13;;;19.68;27.96
57086;BME280;42964;42.910;23.792;2023-01-19T10:26:00;96474.53;;;19.53;28.12
57086;BME280;42964;42.910;23.792;2023-01-19T10:31:02;96509.75;;;19.82;28.12
57086;BME280;42964;42.910;23.792;2023-01-19T10:36:09;96467.00;;;19.63;28.66
57086;BME280;42964;42.910;23.792;2023-01-19T10:46:38;96471.59;;;19.43;28.48
57086;BME280;42964;42.910;23.792;2023-01-19T10:51:46;96471.94;;;19.37;28.42
57086;BME280;42964;42.910;23.792;2023-01-19T10:56:57;96475.19;;;19.27;29.01
57086;BME280;42964;42.910;23.792;2023-01-19T11:02:26;96474.81;;;19.49;29.25
57086;BME280;42964;42.910;23.792;2023-01-19T11:07:31;96475.47;;;19.52;29.39
57086;BME280;42964;42.910;23.792;2023-01-19T11:12:30;96397.34;;;18.92;28.87
57086;BME280;42964;42.910;23.792;2023-01-19T11:17:31;96472.78;;;19.54;29.00
57086;BME280;42964;42.910;23.792;2023-01-19T11:22:32;96453.59;;;19.52;29.21
57086;BME280;42964;42.910;23.792;2023-01-19T11:27:35;96426.50;;;19.19;29.05
57086;BME280;42964;42.910;23.792;2023-01-19T11:32:35;96466.69;;;19.37;29.48
57086;BME280;42964;42.910;23.792;2023-01-19T11:37:34;96455.47;;;19.50;28.99
57086;BME280;42964;42.910;23.792;2023-01-19T11:42:37;96484.66;;;19.61;28.76
57086;BME280;42964;42.910;23.792;2023-01-19T11:47:42;96475.81;;;19.62;28.50
57086;BME280;42964;42.910;23.792;2023-01-19T11:52:45;96476.66;;;19.62;28.24
57086;BME280;42964;42.910;23.792;2023-01-19T11:57:51;96453.88;;;19.77;28.08
57086;BME280;42964;42.910;23.792;2023-01-19T12:08:52;96472.22;;;19.79;28.26
57086;BME280;42964;42.910;23.792;2023-01-19T12:13:56;96467.47;;;19.70;28.06
57086;BME280;42964;42.910;23.792;2023-01-19T12:19:14;96460.03;;;19.62;28.20
57086;BME280;42964;42.910;23.792;2023-01-19T12:24:26;96456.88;;;19.71;27.64
57086;BME280;42964;42.910;23.792;2023-01-19T12:29:30;96461.59;;;19.80;28.14
57086;BME280;42964;42.910;23.792;2023-01-19T12:34:49;96479.97;;;19.66;27.65
57086;BME280;42964;42.910;23.792;2023-01-19T12:39:51;96473.56;;;19.56;28.05
57086;BME280;42964;42.910;23.792;2023-01-19T12:45:19;96487.97;;;19.64;27.92
57086;BME280;42964;42.910;23.792;2023-01-19T12:50:32;96481.25;;;19.43;28.59
57086;BME280;42964;42.910;23.792;2023-01-19T12:55:37;96451.06;;;19.34;28.52
57086;BME280;42964;42.910;23.792;2023-01-19T13:00:41;96466.63;;;19.23;28.65
57086;BME280;42964;42.910;23.792;2023-01-19T13:21:44;96497.06;;;18.95;29.50
57086;BME280;42964;42.910;23.792;2023-01-19T13:26:53;96500.28;;;18.85;29.73
57086;BME280;42964;42.910;23.792;2023-01-19T13:32:16;96507.25;;;18.86;30.02
57086;BME280;42964;42.910;23.792;2023-01-19T13:37:19;96469.63;;;18.68;29.44
57086;BME280;42964;42.910;23.792;2023-01-19T13:47:21;96479.25;;;18.85;29.70
57086;BME280;42964;42.910;23.792;2023-01-19T13:52:28;96442.44;;;18.69;29.66
57086;BME280;42964;42.910;23.792;2023-01-19T13:57:32;96467.41;;;18.60;29.97
57086;BME280;42964;42.910;23.792;2023-01-19T14:02:32;96475.50;;;18.39;30.01
57086;BME280;42964;42.910;23.792;2023-01-19T14:07:32;96457.97;;;18.40;29.90
57086;BME280;42964;42.910;23.792;2023-01-19T14:12:33;96427.88;;;18.30;30.24
57086;BME280;42964;42.910;23.792;2023-01-19T14:17:33;96457.84;;;18.26;30.23
57086;BME280;42964;42.910;23.792;2023-01-19T14:22:45;96449.16;;;18.08;31.02
57086;BME280;42964;42.910;23.792;2023-01-19T14:27:46;96457.13;;;17.89;31.58
57086;BME280;42964;42.910;23.792;2023-01-19T14:32:45;96457.63;;;17.61;32.11
57086;BME280;42964;42.910;23.792;2023-01-19T14:37:46;96468.03;;;17.45;32.41
57086;BME280;42964;42.910;23.792;2023-01-19T14:42:57;96454.69;;;17.32;32.51
57086;BME280;42964;42.910;23.792;2023-01-19T14:48:03;96417.97;;;16.96;32.56
57086;BME280;42964;42.910;23.792;2023-01-19T14:53:14;96487.53;;;17.22;32.55
57086;BME280;42964;42.910;23.792;2023-01-19T14:58:18;96422.13;;;16.82;32.58
57086;BME280;42964;42.910;23.792;2023-01-19T15:03:18;96483.16;;;16.84;33.20
57086;BME280;42964;42.910;23.792;2023-01-19T15:08:31;96465.00;;;16.61;33.18
57086;BME280;42964;42.910;23.792;2023-01-19T15:13:31;96486.22;;;16.55;33.53
57086;BME280;42964;42.910;23.792;2023-01-19T15:18:30;96508.09;;;16.54;33.68
57086;BME280;42964;42.910;23.792;2023-01-19T15:23:30;96478.41;;;16.14;34.25
57086;BME280;42964;42.910;23.792;2023-01-19T15:28:30;96514.47;;;16.27;34.18
57086;BME280;42964;42.910;23.792;2023-01-19T15:33:29;96513.97;;;16.19;34.74
57086;BME280;42964;42.910;23.792;2023-01-19T15:38:29;96502.50;;;16.01;34.89
57086;BME280;42964;42.910;23.792;2023-01-19T15:43:27;96480.56;;;15.63;35.57
57086;BME280;42964;42.910;23.792;2023-01-19T15:48:27;96503.44;;;15.80;35.97
57086;BME280;42964;42.910;23.792;2023-01-19T15:53:26;96506.09;;;15.56;36.18
57086;BME280;42964;42.910;23.792;2023-01-19T15:58:25;96525.72;;;15.66;36.74
57086;BME280;42964;42.910;23.792;2023-01-19T16:03:24;96543.38;;;15.61;36.31
57086;BME280;42964;42.910;23.792;2023-01-19T16:08:23;96550.19;;;15.65;36.80
57086;BME280;42964;42.910;23.792;2023-01-19T16:13:22;96545.16;;;15.61;37.02
57086;BME280;42964;42.910;23.792;2023-01-19T16:18:22;96525.81;;;15.43;37.08
57086;BME280;42964;42.910;23.792;2023-01-19T16:23:21;96550.88;;;15.49;36.90
57086;BME280;42964;42.910;23.792;2023-01-19T16:28:20;96571.22;;;15.40;37.43
57086;BME280;42964;42.910;23.792;2023-01-19T16:33:19;96568.75;;;15.37;37.34
57086;BME280;42964;42.910;23.792;2023-01-19T16:38:17;96562.34;;;15.22;37.34
57086;BME280;42964;42.910;23.792;2023-01-19T16:43:17;96593.34;;;15.32;38.29
57086;BME280;42964;42.910;23.792;2023-01-19T16:48:16;96618.22;;;15.42;38.18
57086;BME280;42964;42.910;23.792;2023-01-19T16:53:15;96630.38;;;15.43;38.27
57086;BME280;42964;42.910;23.792;2023-01-19T16:58:14;96642.06;;;15.34;38.20
57086;BME280;42964;42.910;23.792;2023-01-19T17:03:12;96656.81;;;15.35;38.13
57086;BME280;42964;42.910;23.792;2023-01-19T17:08:11;96663.34;;;15.47;37.61
57086;BME280;42964;42.910;23.792;2023-01-19T17:13:10;96671.03;;;15.52;37.62
57086;BME280;42964;42.910;23.792;2023-01-19T17:18:09;96678.69;;;15.56;37.85
57086;BME280;42964;42.910;23.792;2023-01-19T17:23:08;96691.88;;;15.53;37.72
57086;BME280;42964;42.910;23.792;2023-01-19T17:28:07;96672.00;;;15.25;41.57
57086;BME280;42964;42.910;23.792;2023-01-19T17:33:06;96689.34;;;15.03;41.81
57086;BME280;42964;42.910;23.792;2023-01-19T17:38:04;96700.38;;;14.34;46.82
57086;BME280;42964;42.910;23.792;2023-01-19T17:43:03;96699.19;;;14.18;47.79
57086;BME280;42964;42.910;23.792;2023-01-19T17:48:18;96728.75;;;13.90;49.97
57086;BME280;42964;42.910;23.792;2023-01-19T17:53:16;96729.44;;;13.67;50.64
57086;BME280;42964;42.910;23.792;2023-01-19T17:58:15;96748.66;;;13.32;52.90
57086;BME280;42964;42.910;23.792;2023-01-19T18:03:14;96758.25;;;13.31;52.93
57086;BME280;42964;42.910;23.792;2023-01-19T18:08:13;96773.63;;;13.09;54.24
57086;BME280;42964;42.910;23.792;2023-01-19T18:13:12;96774.59;;;12.71;56.60
57086;BME280;42964;42.910;23.792;2023-01-19T18:18:11;96767.06;;;12.23;58.94
57086;BME280;42964;42.910;23.792;2023-01-19T18:23:10;96760.47;;;12.08;59.76
57086;BME280;42964;42.910;23.792;2023-01-19T18:28:09;96762.84;;;12.17;60.44
57086;BME280;42964;42.910;23.792;2023-01-19T18:33:08;96781.81;;;12.22;60.31
57086;BME280;42964;42.910;23.792;2023-01-19T18:38:07;96767.50;;;12.03;61.30
57086;BME280;42964;42.910;23.792;2023-01-19T18:43:07;96791.66;;;12.08;61.45
57086;BME280;42964;42.910;23.792;2023-01-19T18:48:06;96766.69;;;11.62;64.86
57086;BME280;42964;42.910;23.792;2023-01-19T18:53:05;96807.34;;;11.19;68.97
57086;BME280;42964;42.910;23.792;2023-01-19T18:58:04;96817.41;;;10.90;70.60
57086;BME280;42964;42.910;23.792;2023-01-19T19:03:04;96830.81;;;10.62;73.36
57086;BME280;42964;42.910;23.792;2023-01-19T19:08:08;96788.69;;;10.46;74.69
57086;BME280;42964;42.910;23.792;2023-01-19T19:13:07;96848.81;;;10.71;75.65
57086;BME280;42964;42.910;23.792;2023-01-19T19:18:06;96852.94;;;10.83;76.25
57086;BME280;42964;42.910;23.792;2023-01-19T19:23:10;96870.75;;;10.50;78.55
57086;BME280;42964;42.910;23.792;2023-01-19T19:28:09;96831.84;;;9.91;80.71
57086;BME280;42964;42.910;23.792;2023-01-19T19:33:08;96841.13;;;10.06;81.22
57086;BME280;42964;42.910;23.792;2023-01-19T19:38:07;96879.97;;;10.09;83.80
57086;BME280;42964;42.910;23.792;2023-01-19T19:43:06;96878.16;;;10.16;83.58
57086;BME280;42964;42.910;23.792;2023-01-19T19:48:05;96885.09;;;10.15;84.59
57086;BME280;42964;42.910;23.792;2023-01-19T19:53:04;96899.84;;;10.10;86.01
57086;BME280;42964;42.910;23.792;2023-01-19T19:58:03;96869.13;;;9.78;87.50
57086;BME280;42964;42.910;23.792;2023-01-19T20:03:02;96807.50;;;9.35;88.67
57086;BME280;42964;42.910;23.792;2023-01-19T20:08:01;96829.66;;;9.61;89.44
57086;BME280;42964;42.910;23.792;2023-01-19T20:13:00;96866.38;;;9.92;90.36
57086;BME280;42964;42.910;23.792;2023-01-19T20:18:00;96868.19;;;9.85;90.61
57086;BME280;42964;42.910;23.792;2023-01-19T20:23:02;96880.34;;;9.82;91.32
57086;BME280;42964;42.910;23.792;2023-01-19T20:28:01;96875.84;;;9.93;91.05
57086;BME280;42964;42.910;23.792;2023-01-19T20:33:00;96880.97;;;10.01;91.36
57086;BME280;42964;42.910;23.792;2023-01-19T20:37:59;96872.47;;;9.86;92.02
57086;BME280;42964;42.910;23.792;2023-01-19T20:42:58;96896.09;;;9.63;93.75
57086;BME280;42964;42.910;23.792;2023-01-19T20:47:57;96895.31;;;9.55;94.18
57086;BME280;42964;42.910;23.792;2023-01-19T20:52:56;96894.59;;;9.41;95.05
57086;BME280;42964;42.910;23.792;2023-01-19T20:57:55;96857.69;;;9.19;95.77
57086;BME280;42964;42.910;23.792;2023-01-19T21:02:54;96878.38;;;9.20;96.71
57086;BME280;42964;42.910;23.792;2023-01-19T21:07:54;96858.50;;;9.21;97.44
57086;BME280;42964;42.910;23.792;2023-01-19T21:12:53;96853.63;;;8.90;98.27
57086;BME280;42964;42.910;23.792;2023-01-19T21:17:52;96842.47;;;8.86;98.48
57086;BME280;42964;42.910;23.792;2023-01-19T21:22:51;96856.22;;;8.91;99.10
57086;BME280;42964;42.910;23.792;2023-01-19T21:27:50;96856.06;;;9.07;100.00
57086;BME280;42964;42.910;23.792;2023-01-19T21:32:49;96824.22;;;8.99;99.95
57086;BME280;42964;42.910;23.792;2023-01-19T21:37:47;96833.59;;;9.10;100.00
57086;BME280;42964;42.910;23.792;2023-01-19T21:42:46;96815.38;;;9.20;100.00
57086;BME280;42964;42.910;23.792;2023-01-19T21:47:45;96830.03;;;9.22;99.89
57086;BME280;42964;42.910;23.792;2023-01-19T21:52:44;96795.56;;;9.17;100.00
57086;BME280;42964;42.910;23.792;2023-01-19T21:57:43;96831.69;;;9.32;100.00
57086;BME280;42964;42.910;23.792;2023-01-19T22:02:42;96786.88;;;9.24;99.76
57086;BME280;42964;42.910;23.792;2023-01-19T22:07:41;96778.06;;;9.42;100.00
57086;BME280;42964;42.910;23.792;2023-01-19T22:12:40;96763.66;;;9.15;100.00
57086;BME280;42964;42.910;23.792;2023-01-19T22:17:39;96741.38;;;9.02;100.00
57086;BME280;42964;42.910;23.792;2023-01-19T22:22:38;96765.03;;;8.66;100.00
57086;BME280;42964;42.910;23.792;2023-01-19T22:27:37;96744.25;;;8.79;100.00
57086;BME280;42964;42.910;23.792;2023-01-19T22:32:36;96770.72;;;9.02;100.00
57086;BME280;42964;42.910;23.792;2023-01-19T22:37:36;96742.44;;;8.84;100.00
57086;BME280;42964;42.910;23.792;2023-01-19T22:42:35;96782.88;;;8.96;100.00
57086;BME280;42964;42.910;23.792;2023-01-19T22:47:34;96799.94;;;9.10;100.00
57086;BME280;42964;42.910;23.792;2023-01-19T22:52:33;96702.84;;;8.76;100.00
57086;BME280;42964;42.910;23.792;2023-01-19T22:57:32;96750.31;;;8.71;100.00
57086;BME280;42964;42.910;23.792;2023-01-19T23:02:34;96759.94;;;8.60;100.00
57086;BME280;42964;42.910;23.792;2023-01-19T23:07:33;96752.41;;;8.31;100.00
57086;BME280;42964;42.910;23.792;2023-01-19T23:12:32;96754.09;;;8.37;100.00
57086;BME280;42964;42.910;23.792;2023-01-19T23:17:31;96772.25;;;8.32;100.00
57086;BME280;42964;42.910;23.792;2023-01-19T23:22:30;96750.78;;;8.19;100.00
57086;BME280;42964;42.910;23.792;2023-01-19T23:27:29;96736.38;;;7.86;100.00
57086;BME280;42964;42.910;23.792;2023-01-19T23:32:28;96727.06;;;7.63;100.00
57086;BME280;42964;42.910;23.792;2023-01-19T23:37:26;96734.75;;;7.74;100.00
57086;BME280;42964;42.910;23.792;2023-01-19T23:42:25;96715.81;;;7.74;100.00
57086;BME280;42964;42.910;23.792;2023-01-19T23:47:24;96559.78;;;6.82;100.00
57086;BME280;42964;42.910;23.792;2023-01-19T23:52:23;96709.00;;;7.60;100.00
57086;BME280;42964;42.910;23.792;2023-01-19T23:57:22;96709.72;;;7.82;100.00
